sensor_id;sensor_type;location;lat;lon;timestamp;P1;P2;P0
55043;PMS5003;54902;50.420;18.854;2022-08-18T00:00:09;35;31;22
55043;PMS5003;54902;50.420;18.854;2022-08-18T00:00:29;35;31;22
55043;PMS5003;54902;50.420;18.854;2022-08-18T00:00:46;35;31;22
55043;PMS5003;54902;50.420;18.854;2022-08-18T00:01:03;35;31;22
55043;PMS5003;54902;50.420;18.854;2022-08-18T00:01:20;35;31;22
55043;PMS5003;54902;50.420;18.854;2022-08-18T00:01:39;35;31;22
55043;PMS5003;54902;50.420;18.854;2022-08-18T00:02:25;35;31;22
55043;PMS5003;54902;50.420;18.854;2022-08-18T00:02:43;35;31;22
55043;PMS5003;54902;50.420;18.854;2022-08-18T00:03:00;35;31;22
55043;PMS5003;54902;50.420;18.854;2022-08-18T00:03:19;46;39;28
55043;PMS5003;54902;50.420;18.854;2022-08-18T00:03:36;46;39;28
55043;PMS5003;54902;50.420;18.854;2022-08-18T00:03:52;46;39;28
55043;PMS5003;54902;50.420;18.854;2022-08-18T00:04:09;46;39;28
55043;PMS5003;54902;50.420;18.854;2022-08-18T00:04:25;46;39;28
55043;PMS5003;54902;50.420;18.854;2022-08-18T00:04:41;46;39;28
55043;PMS5003;54902;50.420;18.854;2022-08-18T00:04:58;46;39;28
55043;PMS5003;54902;50.420;18.854;2022-08-18T00:05:14;46;39;28
55043;PMS5003;54902;50.420;18.854;2022-08-18T00:05:30;46;39;28
55043;PMS5003;54902;50.420;18.854;2022-08-18T00:05:46;46;39;28
55043;PMS5003;54902;50.420;18.854;2022-08-18T00:06:03;46;39;28
55043;PMS5003;54902;50.420;18.854;2022-08-18T00:06:19;46;39;28
55043;PMS5003;54902;50.420;18.854;2022-08-18T00:06:35;46;39;28
55043;PMS5003;54902;50.420;18.854;2022-08-18T00:06:51;46;39;28
55043;PMS5003;54902;50.420;18.854;2022-08-18T00:06:54;46;39;28
55043;PMS5003;54902;50.420;18.854;2022-08-18T00:07:08;46;39;28
55043;PMS5003;54902;50.420;18.854;2022-08-18T00:07:28;46;39;28
55043;PMS5003;54902;50.420;18.854;2022-08-18T00:07:46;46;39;28
55043;PMS5003;54902;50.420;18.854;2022-08-18T00:08:02;46;39;28
55043;PMS5003;54902;50.420;18.854;2022-08-18T00:08:18;46;39;28
55043;PMS5003;54902;50.420;18.854;2022-08-18T00:08:34;46;39;28
55043;PMS5003;54902;50.420;18.854;2022-08-18T00:08:50;46;39;28
55043;PMS5003;54902;50.420;18.854;2022-08-18T00:09:08;46;39;28
55043;PMS5003;54902;50.420;18.854;2022-08-18T00:09:25;46;39;28
55043;PMS5003;54902;50.420;18.854;2022-08-18T00:09:41;46;39;28
55043;PMS5003;54902;50.420;18.854;2022-08-18T00:09:58;46;39;28
55043;PMS5003;54902;50.420;18.854;2022-08-18T00:10:15;46;39;28
55043;PMS5003;54902;50.420;18.854;2022-08-18T00:10:31;46;39;28
55043;PMS5003;54902;50.420;18.854;2022-08-18T00:10:48;46;39;28
55043;PMS5003;54902;50.420;18.854;2022-08-18T00:11:04;46;39;28
55043;PMS5003;54902;50.420;18.854;2022-08-18T00:11:20;46;39;28
55043;PMS5003;54902;50.420;18.854;2022-08-18T00:11:39;46;39;28
55043;PMS5003;54902;50.420;18.854;2022-08-18T00:11:57;46;39;28
55043;PMS5003;54902;50.420;18.854;2022-08-18T00:12:18;46;39;28
55043;PMS5003;54902;50.420;18.854;2022-08-18T00:12:40;46;39;28
55043;PMS5003;54902;50.420;18.854;2022-08-18T00:12:57;46;39;28
55043;PMS5003;54902;50.420;18.854;2022-08-18T00:13:13;46;39;28
55043;PMS5003;54902;50.420;18.854;2022-08-18T00:13:29;46;39;28
55043;PMS5003;54902;50.420;18.854;2022-08-18T00:13:45;46;39;28
55043;PMS5003;54902;50.420;18.854;2022-08-18T00:14:02;46;39;28
55043;PMS5003;54902;50.420;18.854;2022-08-18T00:14:19;46;39;28
55043;PMS5003;54902;50.420;18.854;2022-08-18T00:14:35;46;39;28
55043;PMS5003;54902;50.420;18.854;2022-08-18T00:14:52;46;39;28
55043;PMS5003;54902;50.420;18.854;2022-08-18T00:15:10;46;39;28
55043;PMS5003;54902;50.420;18.854;2022-08-18T00:15:28;46;39;28
55043;PMS5003;54902;50.420;18.854;2022-08-18T00:15:44;46;39;28
55043;PMS5003;54902;50.420;18.854;2022-08-18T00:15:59;46;39;28
55043;PMS5003;54902;50.420;18.854;2022-08-18T00:16:15;46;39;28
55043;PMS5003;54902;50.420;18.854;2022-08-18T00:16:31;46;39;28
55043;PMS5003;54902;50.420;18.854;2022-08-18T00:16:48;46;39;28
55043;PMS5003;54902;50.420;18.854;2022-08-18T00:17:05;46;39;28
55043;PMS5003;54902;50.420;18.854;2022-08-18T00:17:21;46;39;28
55043;PMS5003;54902;50.420;18.854;2022-08-18T00:17:38;46;39;28
55043;PMS5003;54902;50.420;18.854;2022-08-18T00:17:54;46;39;28
55043;PMS5003;54902;50.420;18.854;2022-08-18T00:18:10;46;39;28
55043;PMS5003;54902;50.420;18.854;2022-08-18T00:18:26;46;39;28
55043;PMS5003;54902;50.420;18.854;2022-08-18T00:18:42;46;39;28
55043;PMS5003;54902;50.420;18.854;2022-08-18T00:18:58;46;39;28
55043;PMS5003;54902;50.420;18.854;2022-08-18T00:19:14;46;39;28
55043;PMS5003;54902;50.420;18.854;2022-08-18T00:19:30;46;39;28
55043;PMS5003;54902;50.420;18.854;2022-08-18T00:19:46;46;39;28
55043;PMS5003;54902;50.420;18.854;2022-08-18T00:20:08;46;39;28
55043;PMS5003;54902;50.420;18.854;2022-08-18T00:20:26;46;39;28
55043;PMS5003;54902;50.420;18.854;2022-08-18T00:20:42;46;39;28
55043;PMS5003;54902;50.420;18.854;2022-08-18T00:20:58;46;39;28
55043;PMS5003;54902;50.420;18.854;2022-08-18T00:21:16;46;39;28
55043;PMS5003;54902;50.420;18.854;2022-08-18T00:21:33;46;39;28
55043;PMS5003;54902;50.420;18.854;2022-08-18T00:21:49;46;39;28
55043;PMS5003;54902;50.420;18.854;2022-08-18T00:21:55;46;39;28
55043;PMS5003;54902;50.420;18.854;2022-08-18T00:22:05;46;39;28
55043;PMS5003;54902;50.420;18.854;2022-08-18T00:22:21;46;39;28
55043;PMS5003;54902;50.420;18.854;2022-08-18T00:22:38;46;39;28
55043;PMS5003;54902;50.420;18.854;2022-08-18T00:22:57;46;39;28
55043;PMS5003;54902;50.420;18.854;2022-08-18T00:23:13;46;39;28
55043;PMS5003;54902;50.420;18.854;2022-08-18T00:23:29;46;39;28
55043;PMS5003;54902;50.420;18.854;2022-08-18T00:23:46;46;39;28
55043;PMS5003;54902;50.420;18.854;2022-08-18T00:24:03;46;39;28
55043;PMS5003;54902;50.420;18.854;2022-08-18T00:24:19;46;39;28
55043;PMS5003;54902;50.420;18.854;2022-08-18T00:24:35;46;39;28
55043;PMS5003;54902;50.420;18.854;2022-08-18T00:24:53;46;39;28
55043;PMS5003;54902;50.420;18.854;2022-08-18T00:25:11;46;39;28
55043;PMS5003;54902;50.420;18.854;2022-08-18T00:25:29;46;39;28
55043;PMS5003;54902;50.420;18.854;2022-08-18T00:25:44;46;39;28
55043;PMS5003;54902;50.420;18.854;2022-08-18T00:26:04;46;39;28
55043;PMS5003;54902;50.420;18.854;2022-08-18T00:26:20;46;39;28
55043;PMS5003;54902;50.420;18.854;2022-08-18T00:26:36;46;39;28
55043;PMS5003;54902;50.420;18.854;2022-08-18T00:26:52;46;39;28
55043;PMS5003;54902;50.420;18.854;2022-08-18T00:27:09;46;39;28
55043;PMS5003;54902;50.420;18.854;2022-08-18T00:27:27;46;39;28
55043;PMS5003;54902;50.420;18.854;2022-08-18T00:27:45;46;39;28
55043;PMS5003;54902;50.420;18.854;2022-08-18T00:28:01;46;39;28
55043;PMS5003;54902;50.420;18.854;2022-08-18T00:28:17;46;39;28
55043;PMS5003;54902;50.420;18.854;2022-08-18T00:28:33;46;39;28
55043;PMS5003;54902;50.420;18.854;2022-08-18T00:28:49;46;39;28
55043;PMS5003;54902;50.420;18.854;2022-08-18T00:29:05;46;39;28
55043;PMS5003;54902;50.420;18.854;2022-08-18T00:29:21;46;39;28
55043;PMS5003;54902;50.420;18.854;2022-08-18T00:29:37;46;39;28
55043;PMS5003;54902;50.420;18.854;2022-08-18T00:29:53;46;39;28
55043;PMS5003;54902;50.420;18.854;2022-08-18T00:30:11;46;39;28
55043;PMS5003;54902;50.420;18.854;2022-08-18T00:30:29;46;39;28
55043;PMS5003;54902;50.420;18.854;2022-08-18T00:30:46;46;39;28
55043;PMS5003;54902;50.420;18.854;2022-08-18T00:31:03;46;39;28
55043;PMS5003;54902;50.420;18.854;2022-08-18T00:31:20;46;39;28
55043;PMS5003;54902;50.420;18.854;2022-08-18T00:31:35;46;39;28
55043;PMS5003;54902;50.420;18.854;2022-08-18T00:31:51;46;39;28
55043;PMS5003;54902;50.420;18.854;2022-08-18T00:32:14;46;39;28
55043;PMS5003;54902;50.420;18.854;2022-08-18T00:32:33;46;39;28
55043;PMS5003;54902;50.420;18.854;2022-08-18T00:32:56;46;39;28
55043;PMS5003;54902;50.420;18.854;2022-08-18T00:33:13;46;39;28
55043;PMS5003;54902;50.420;18.854;2022-08-18T00:33:29;46;39;28
55043;PMS5003;54902;50.420;18.854;2022-08-18T00:33:45;46;39;28
55043;PMS5003;54902;50.420;18.854;2022-08-18T00:34:00;46;39;28
55043;PMS5003;54902;50.420;18.854;2022-08-18T00:34:16;46;39;28
55043;PMS5003;54902;50.420;18.854;2022-08-18T00:34:32;46;39;28
55043;PMS5003;54902;50.420;18.854;2022-08-18T00:34:48;46;39;28
55043;PMS5003;54902;50.420;18.854;2022-08-18T00:35:10;46;39;28
55043;PMS5003;54902;50.420;18.854;2022-08-18T00:35:30;46;39;28
55043;PMS5003;54902;50.420;18.854;2022-08-18T00:35:48;46;39;28
55043;PMS5003;54902;50.420;18.854;2022-08-18T00:36:04;46;39;28
55043;PMS5003;54902;50.420;18.854;2022-08-18T00:36:20;46;39;28
55043;PMS5003;54902;50.420;18.854;2022-08-18T00:36:36;46;39;28
55043;PMS5003;54902;50.420;18.854;2022-08-18T00:36:52;46;39;28
55043;PMS5003;54902;50.420;18.854;2022-08-18T00:36:56;46;39;28
55043;PMS5003;54902;50.420;18.854;2022-08-18T00:37:08;46;39;28
55043;PMS5003;54902;50.420;18.854;2022-08-18T00:37:24;46;39;28
55043;PMS5003;54902;50.420;18.854;2022-08-18T00:37:41;46;39;28
55043;PMS5003;54902;50.420;18.854;2022-08-18T00:37:58;46;39;28
55043;PMS5003;54902;50.420;18.854;2022-08-18T00:38:16;46;39;28
55043;PMS5003;54902;50.420;18.854;2022-08-18T00:38:32;46;39;28
55043;PMS5003;54902;50.420;18.854;2022-08-18T00:38:47;46;39;28
55043;PMS5003;54902;50.420;18.854;2022-08-18T00:39:03;46;39;28
55043;PMS5003;54902;50.420;18.854;2022-08-18T00:39:20;46;39;28
55043;PMS5003;54902;50.420;18.854;2022-08-18T00:39:35;46;39;28
55043;PMS5003;54902;50.420;18.854;2022-08-18T00:39:52;46;39;28
55043;PMS5003;54902;50.420;18.854;2022-08-18T00:40:09;46;39;28
55043;PMS5003;54902;50.420;18.854;2022-08-18T00:40:29;46;39;28
55043;PMS5003;54902;50.420;18.854;2022-08-18T00:40:51;46;39;28
55043;PMS5003;54902;50.420;18.854;2022-08-18T00:41:08;46;39;28
55043;PMS5003;54902;50.420;18.854;2022-08-18T00:41:24;46;39;28
55043;PMS5003;54902;50.420;18.854;2022-08-18T00:41:41;46;39;28
55043;PMS5003;54902;50.420;18.854;2022-08-18T00:41:57;46;39;28
55043;PMS5003;54902;50.420;18.854;2022-08-18T00:42:23;46;39;28
55043;PMS5003;54902;50.420;18.854;2022-08-18T00:42:41;46;39;28
55043;PMS5003;54902;50.420;18.854;2022-08-18T00:43:01;46;39;28
55043;PMS5003;54902;50.420;18.854;2022-08-18T00:43:48;46;39;28
55043;PMS5003;54902;50.420;18.854;2022-08-18T00:44:07;46;39;28
55043;PMS5003;54902;50.420;18.854;2022-08-18T00:44:23;46;39;28
55043;PMS5003;54902;50.420;18.854;2022-08-18T00:44:38;46;39;28
55043;PMS5003;54902;50.420;18.854;2022-08-18T00:44:55;36;32;23
55043;PMS5003;54902;50.420;18.854;2022-08-18T00:45:13;36;32;23
55043;PMS5003;54902;50.420;18.854;2022-08-18T00:45:33;36;32;23
55043;PMS5003;54902;50.420;18.854;2022-08-18T00:45:51;36;32;23
55043;PMS5003;54902;50.420;18.854;2022-08-18T00:46:08;31;30;20
55043;PMS5003;54902;50.420;18.854;2022-08-18T00:46:30;31;30;20
55043;PMS5003;54902;50.420;18.854;2022-08-18T00:46:48;31;30;20
55043;PMS5003;54902;50.420;18.854;2022-08-18T00:47:04;31;30;20
55043;PMS5003;54902;50.420;18.854;2022-08-18T00:47:21;31;30;20
55043;PMS5003;54902;50.420;18.854;2022-08-18T00:47:37;31;30;20
55043;PMS5003;54902;50.420;18.854;2022-08-18T00:47:53;31;30;20
55043;PMS5003;54902;50.420;18.854;2022-08-18T00:48:10;31;30;20
55043;PMS5003;54902;50.420;18.854;2022-08-18T00:48:27;31;30;20
55043;PMS5003;54902;50.420;18.854;2022-08-18T00:48:43;31;30;20
55043;PMS5003;54902;50.420;18.854;2022-08-18T00:48:59;38;36;24
55043;PMS5003;54902;50.420;18.854;2022-08-18T00:49:16;38;36;24
55043;PMS5003;54902;50.420;18.854;2022-08-18T00:49:32;38;36;24
55043;PMS5003;54902;50.420;18.854;2022-08-18T00:49:50;38;36;24
55043;PMS5003;54902;50.420;18.854;2022-08-18T00:50:08;29;29;19
55043;PMS5003;54902;50.420;18.854;2022-08-18T00:50:34;29;29;19
55043;PMS5003;54902;50.420;18.854;2022-08-18T00:50:55;29;29;19
55043;PMS5003;54902;50.420;18.854;2022-08-18T00:51:39;29;29;19
55043;PMS5003;54902;50.420;18.854;2022-08-18T00:51:46;29;29;19
55043;PMS5003;54902;50.420;18.854;2022-08-18T00:51:57;29;29;19
55043;PMS5003;54902;50.420;18.854;2022-08-18T00:52:05;29;29;19
55043;PMS5003;54902;50.420;18.854;2022-08-18T00:52:21;29;29;21
55043;PMS5003;54902;50.420;18.854;2022-08-18T00:52:39;29;29;21
55043;PMS5003;54902;50.420;18.854;2022-08-18T00:52:58;29;29;21
55043;PMS5003;54902;50.420;18.854;2022-08-18T00:53:23;29;29;21
55043;PMS5003;54902;50.420;18.854;2022-08-18T00:53:45;29;29;21
55043;PMS5003;54902;50.420;18.854;2022-08-18T00:54:16;29;29;21
55043;PMS5003;54902;50.420;18.854;2022-08-18T00:54:33;29;29;21
55043;PMS5003;54902;50.420;18.854;2022-08-18T00:54:51;29;29;21
55043;PMS5003;54902;50.420;18.854;2022-08-18T00:55:10;29;29;21
55043;PMS5003;54902;50.420;18.854;2022-08-18T00:55:27;29;29;21
55043;PMS5003;54902;50.420;18.854;2022-08-18T00:55:45;33;33;24
55043;PMS5003;54902;50.420;18.854;2022-08-18T00:56:07;33;33;24
55043;PMS5003;54902;50.420;18.854;2022-08-18T00:56:28;33;33;24
55043;PMS5003;54902;50.420;18.854;2022-08-18T00:56:50;33;33;24
55043;PMS5003;54902;50.420;18.854;2022-08-18T00:57:10;33;33;24
55043;PMS5003;54902;50.420;18.854;2022-08-18T00:57:28;33;33;24
55043;PMS5003;54902;50.420;18.854;2022-08-18T00:57:46;30;30;21
55043;PMS5003;54902;50.420;18.854;2022-08-18T00:58:07;30;30;21
55043;PMS5003;54902;50.420;18.854;2022-08-18T00:58:36;30;30;21
55043;PMS5003;54902;50.420;18.854;2022-08-18T00:58:59;30;30;21
55043;PMS5003;54902;50.420;18.854;2022-08-18T00:59:50;34;32;24
55043;PMS5003;54902;50.420;18.854;2022-08-18T01:00:12;34;32;24
55043;PMS5003;54902;50.420;18.854;2022-08-18T01:00:29;34;32;24
55043;PMS5003;54902;50.420;18.854;2022-08-18T01:00:47;34;32;24
55043;PMS5003;54902;50.420;18.854;2022-08-18T01:01:05;34;32;24
55043;PMS5003;54902;50.420;18.854;2022-08-18T01:01:24;34;32;24
55043;PMS5003;54902;50.420;18.854;2022-08-18T01:01:44;34;32;24
55043;PMS5003;54902;50.420;18.854;2022-08-18T01:02:03;34;32;24
55043;PMS5003;54902;50.420;18.854;2022-08-18T01:02:25;34;32;24
55043;PMS5003;54902;50.420;18.854;2022-08-18T01:02:47;38;35;26
55043;PMS5003;54902;50.420;18.854;2022-08-18T01:03:11;25;24;18
55043;PMS5003;54902;50.420;18.854;2022-08-18T01:03:30;25;24;18
55043;PMS5003;54902;50.420;18.854;2022-08-18T01:03:48;25;24;18
55043;PMS5003;54902;50.420;18.854;2022-08-18T01:04:10;25;24;18
55043;PMS5003;54902;50.420;18.854;2022-08-18T01:04:32;25;24;18
55043;PMS5003;54902;50.420;18.854;2022-08-18T01:04:58;25;24;18
55043;PMS5003;54902;50.420;18.854;2022-08-18T01:05:56;25;24;18
55043;PMS5003;54902;50.420;18.854;2022-08-18T01:06:19;34;32;23
55043;PMS5003;54902;50.420;18.854;2022-08-18T01:06:43;24;23;17
55043;PMS5003;54902;50.420;18.854;2022-08-18T01:07:03;24;23;17
55043;PMS5003;54902;50.420;18.854;2022-08-18T01:07:13;24;23;17
55043;PMS5003;54902;50.420;18.854;2022-08-18T01:07:39;24;23;17
55043;PMS5003;54902;50.420;18.854;2022-08-18T01:08:00;24;23;17
55043;PMS5003;54902;50.420;18.854;2022-08-18T01:08:17;24;23;17
55043;PMS5003;54902;50.420;18.854;2022-08-18T01:08:33;24;23;17
55043;PMS5003;54902;50.420;18.854;2022-08-18T01:08:49;24;23;17
55043;PMS5003;54902;50.420;18.854;2022-08-18T01:09:06;24;23;17
55043;PMS5003;54902;50.420;18.854;2022-08-18T01:09:23;24;23;17
55043;PMS5003;54902;50.420;18.854;2022-08-18T01:09:39;24;23;17
55043;PMS5003;54902;50.420;18.854;2022-08-18T01:09:55;38;36;26
55043;PMS5003;54902;50.420;18.854;2022-08-18T01:10:15;38;36;26
55043;PMS5003;54902;50.420;18.854;2022-08-18T01:10:33;38;36;26
55043;PMS5003;54902;50.420;18.854;2022-08-18T01:10:49;38;36;26
55043;PMS5003;54902;50.420;18.854;2022-08-18T01:11:05;38;36;26
55043;PMS5003;54902;50.420;18.854;2022-08-18T01:11:22;38;36;26
55043;PMS5003;54902;50.420;18.854;2022-08-18T01:11:38;34;33;24
55043;PMS5003;54902;50.420;18.854;2022-08-18T01:11:55;34;33;24
55043;PMS5003;54902;50.420;18.854;2022-08-18T01:12:11;34;33;24
55043;PMS5003;54902;50.420;18.854;2022-08-18T01:12:28;34;33;24
55043;PMS5003;54902;50.420;18.854;2022-08-18T01:12:45;30;28;20
55043;PMS5003;54902;50.420;18.854;2022-08-18T01:13:03;30;28;20
55043;PMS5003;54902;50.420;18.854;2022-08-18T01:13:20;30;28;20
55043;PMS5003;54902;50.420;18.854;2022-08-18T01:13:42;30;28;20
55043;PMS5003;54902;50.420;18.854;2022-08-18T01:13:58;30;28;20
55043;PMS5003;54902;50.420;18.854;2022-08-18T01:14:14;30;28;20
55043;PMS5003;54902;50.420;18.854;2022-08-18T01:14:33;30;28;20
55043;PMS5003;54902;50.420;18.854;2022-08-18T01:14:49;30;28;20
55043;PMS5003;54902;50.420;18.854;2022-08-18T01:15:05;30;28;20
55043;PMS5003;54902;50.420;18.854;2022-08-18T01:15:22;30;28;20
55043;PMS5003;54902;50.420;18.854;2022-08-18T01:15:40;35;33;24
55043;PMS5003;54902;50.420;18.854;2022-08-18T01:15:56;22;21;17
55043;PMS5003;54902;50.420;18.854;2022-08-18T01:16:12;22;21;17
55043;PMS5003;54902;50.420;18.854;2022-08-18T01:16:40;22;21;17
55043;PMS5003;54902;50.420;18.854;2022-08-18T01:17:09;22;21;17
55043;PMS5003;54902;50.420;18.854;2022-08-18T01:17:37;28;28;21
55043;PMS5003;54902;50.420;18.854;2022-08-18T01:18:39;28;28;21
55043;PMS5003;54902;50.420;18.854;2022-08-18T01:19:07;28;28;21
55043;PMS5003;54902;50.420;18.854;2022-08-18T01:19:35;28;28;21
55043;PMS5003;54902;50.420;18.854;2022-08-18T01:20:04;28;28;21
55043;PMS5003;54902;50.420;18.854;2022-08-18T01:20:35;28;28;21
55043;PMS5003;54902;50.420;18.854;2022-08-18T01:21:51;28;28;21
55043;PMS5003;54902;50.420;18.854;2022-08-18T01:22:12;28;28;21
55043;PMS5003;54902;50.420;18.854;2022-08-18T01:23:19;28;28;21
55043;PMS5003;54902;50.420;18.854;2022-08-18T01:23:37;28;28;21
55043;PMS5003;54902;50.420;18.854;2022-08-18T01:23:54;28;28;21
55043;PMS5003;54902;50.420;18.854;2022-08-18T01:24:11;28;28;21
55043;PMS5003;54902;50.420;18.854;2022-08-18T01:24:30;33;33;24
55043;PMS5003;54902;50.420;18.854;2022-08-18T01:25:02;33;33;24
55043;PMS5003;54902;50.420;18.854;2022-08-18T01:25:33;33;33;24
55043;PMS5003;54902;50.420;18.854;2022-08-18T01:26:01;33;33;24
55043;PMS5003;54902;50.420;18.854;2022-08-18T01:26:18;33;33;24
55043;PMS5003;54902;50.420;18.854;2022-08-18T01:26:37;33;33;24
55043;PMS5003;54902;50.420;18.854;2022-08-18T01:27:04;33;33;24
55043;PMS5003;54902;50.420;18.854;2022-08-18T01:27:20;33;33;24
55043;PMS5003;54902;50.420;18.854;2022-08-18T01:27:37;33;33;24
55043;PMS5003;54902;50.420;18.854;2022-08-18T01:27:56;33;33;24
55043;PMS5003;54902;50.420;18.854;2022-08-18T01:28:12;33;33;24
55043;PMS5003;54902;50.420;18.854;2022-08-18T01:28:37;33;33;24
55043;PMS5003;54902;50.420;18.854;2022-08-18T01:28:54;33;33;24
55043;PMS5003;54902;50.420;18.854;2022-08-18T01:29:19;23;23;17
55043;PMS5003;54902;50.420;18.854;2022-08-18T01:29:35;23;23;17
55043;PMS5003;54902;50.420;18.854;2022-08-18T01:29:51;23;23;17
55043;PMS5003;54902;50.420;18.854;2022-08-18T01:30:09;23;23;17
55043;PMS5003;54902;50.420;18.854;2022-08-18T01:30:28;23;23;17
55043;PMS5003;54902;50.420;18.854;2022-08-18T01:30:47;23;23;17
55043;PMS5003;54902;50.420;18.854;2022-08-18T01:31:06;23;23;17
55043;PMS5003;54902;50.420;18.854;2022-08-18T01:31:52;28;28;20
55043;PMS5003;54902;50.420;18.854;2022-08-18T01:32:13;26;25;19
55043;PMS5003;54902;50.420;18.854;2022-08-18T01:32:34;26;25;19
55043;PMS5003;54902;50.420;18.854;2022-08-18T01:32:51;26;25;19
55043;PMS5003;54902;50.420;18.854;2022-08-18T01:33:07;26;25;19
55043;PMS5003;54902;50.420;18.854;2022-08-18T01:33:27;26;25;19
55043;PMS5003;54902;50.420;18.854;2022-08-18T01:33:48;26;25;19
55043;PMS5003;54902;50.420;18.854;2022-08-18T01:34:05;26;25;19
55043;PMS5003;54902;50.420;18.854;2022-08-18T01:34:23;26;25;19
55043;PMS5003;54902;50.420;18.854;2022-08-18T01:34:42;34;33;23
55043;PMS5003;54902;50.420;18.854;2022-08-18T01:35:02;17;17;13
55043;PMS5003;54902;50.420;18.854;2022-08-18T01:35:20;17;17;13
55043;PMS5003;54902;50.420;18.854;2022-08-18T01:35:39;17;17;13
55043;PMS5003;54902;50.420;18.854;2022-08-18T01:36:32;17;17;13
55043;PMS5003;54902;50.420;18.854;2022-08-18T01:36:51;17;17;13
55043;PMS5003;54902;50.420;18.854;2022-08-18T01:37:09;17;17;13
55043;PMS5003;54902;50.420;18.854;2022-08-18T01:37:20;17;17;13
55043;PMS5003;54902;50.420;18.854;2022-08-18T01:37:25;17;17;13
55043;PMS5003;54902;50.420;18.854;2022-08-18T01:37:41;17;17;13
55043;PMS5003;54902;50.420;18.854;2022-08-18T01:37:57;27;26;21
55043;PMS5003;54902;50.420;18.854;2022-08-18T01:38:13;27;26;21
55043;PMS5003;54902;50.420;18.854;2022-08-18T01:38:29;27;26;21
55043;PMS5003;54902;50.420;18.854;2022-08-18T01:38:50;27;26;21
55043;PMS5003;54902;50.420;18.854;2022-08-18T01:39:08;27;26;21
55043;PMS5003;54902;50.420;18.854;2022-08-18T01:39:26;27;26;21
55043;PMS5003;54902;50.420;18.854;2022-08-18T01:39:43;27;26;21
55043;PMS5003;54902;50.420;18.854;2022-08-18T01:39:59;27;26;21
55043;PMS5003;54902;50.420;18.854;2022-08-18T01:40:21;27;26;21
55043;PMS5003;54902;50.420;18.854;2022-08-18T01:40:38;27;26;21
55043;PMS5003;54902;50.420;18.854;2022-08-18T01:40:54;27;26;21
55043;PMS5003;54902;50.420;18.854;2022-08-18T01:41:10;27;26;21
55043;PMS5003;54902;50.420;18.854;2022-08-18T01:41:26;27;26;21
55043;PMS5003;54902;50.420;18.854;2022-08-18T01:41:43;27;26;21
55043;PMS5003;54902;50.420;18.854;2022-08-18T01:41:59;27;26;21
55043;PMS5003;54902;50.420;18.854;2022-08-18T01:42:19;27;26;21
55043;PMS5003;54902;50.420;18.854;2022-08-18T01:42:35;27;26;21
55043;PMS5003;54902;50.420;18.854;2022-08-18T01:42:52;27;26;21
55043;PMS5003;54902;50.420;18.854;2022-08-18T01:43:11;27;26;21
55043;PMS5003;54902;50.420;18.854;2022-08-18T01:43:28;27;26;21
55043;PMS5003;54902;50.420;18.854;2022-08-18T01:43:43;27;26;21
55043;PMS5003;54902;50.420;18.854;2022-08-18T01:44:00;27;26;21
55043;PMS5003;54902;50.420;18.854;2022-08-18T01:44:18;22;21;16
55043;PMS5003;54902;50.420;18.854;2022-08-18T01:44:34;22;21;16
55043;PMS5003;54902;50.420;18.854;2022-08-18T01:44:51;22;21;16
55043;PMS5003;54902;50.420;18.854;2022-08-18T01:45:07;22;21;16
55043;PMS5003;54902;50.420;18.854;2022-08-18T01:45:24;22;21;16
55043;PMS5003;54902;50.420;18.854;2022-08-18T01:45:41;22;21;16
55043;PMS5003;54902;50.420;18.854;2022-08-18T01:45:57;22;21;16
55043;PMS5003;54902;50.420;18.854;2022-08-18T01:46:19;22;21;16
55043;PMS5003;54902;50.420;18.854;2022-08-18T01:46:37;35;34;24
55043;PMS5003;54902;50.420;18.854;2022-08-18T01:46:55;35;34;24
55043;PMS5003;54902;50.420;18.854;2022-08-18T01:47:12;35;34;24
55043;PMS5003;54902;50.420;18.854;2022-08-18T01:47:29;35;34;24
55043;PMS5003;54902;50.420;18.854;2022-08-18T01:47:46;35;34;24
55043;PMS5003;54902;50.420;18.854;2022-08-18T01:48:04;35;34;24
55043;PMS5003;54902;50.420;18.854;2022-08-18T01:48:21;35;34;24
55043;PMS5003;54902;50.420;18.854;2022-08-18T01:48:37;35;34;24
55043;PMS5003;54902;50.420;18.854;2022-08-18T01:48:54;35;34;24
55043;PMS5003;54902;50.420;18.854;2022-08-18T01:49:14;32;31;22
55043;PMS5003;54902;50.420;18.854;2022-08-18T01:49:34;18;18;12
55043;PMS5003;54902;50.420;18.854;2022-08-18T01:49:49;18;18;12
55043;PMS5003;54902;50.420;18.854;2022-08-18T01:50:08;18;18;12
55043;PMS5003;54902;50.420;18.854;2022-08-18T01:50:27;18;18;12
55043;PMS5003;54902;50.420;18.854;2022-08-18T01:50:45;18;18;12
55043;PMS5003;54902;50.420;18.854;2022-08-18T01:51:07;18;18;12
55043;PMS5003;54902;50.420;18.854;2022-08-18T01:51:24;18;18;12
55043;PMS5003;54902;50.420;18.854;2022-08-18T01:51:40;18;18;12
55043;PMS5003;54902;50.420;18.854;2022-08-18T01:51:56;18;18;12
55043;PMS5003;54902;50.420;18.854;2022-08-18T01:52:13;18;18;12
55043;PMS5003;54902;50.420;18.854;2022-08-18T01:52:23;28;28;20
55043;PMS5003;54902;50.420;18.854;2022-08-18T01:52:35;28;28;20
55043;PMS5003;54902;50.420;18.854;2022-08-18T01:52:51;28;28;20
55043;PMS5003;54902;50.420;18.854;2022-08-18T01:53:08;28;28;20
55043;PMS5003;54902;50.420;18.854;2022-08-18T01:53:26;28;28;20
55043;PMS5003;54902;50.420;18.854;2022-08-18T01:53:43;28;28;20
55043;PMS5003;54902;50.420;18.854;2022-08-18T01:54:00;28;28;20
55043;PMS5003;54902;50.420;18.854;2022-08-18T01:54:18;28;28;20
55043;PMS5003;54902;50.420;18.854;2022-08-18T01:54:34;28;28;20
55043;PMS5003;54902;50.420;18.854;2022-08-18T01:54:50;28;28;20
55043;PMS5003;54902;50.420;18.854;2022-08-18T01:55:06;28;28;20
55043;PMS5003;54902;50.420;18.854;2022-08-18T01:55:23;26;26;18
55043;PMS5003;54902;50.420;18.854;2022-08-18T01:55:42;26;26;18
55043;PMS5003;54902;50.420;18.854;2022-08-18T01:55:59;26;26;18
55043;PMS5003;54902;50.420;18.854;2022-08-18T01:56:19;26;26;18
55043;PMS5003;54902;50.420;18.854;2022-08-18T01:56:35;26;26;18
55043;PMS5003;54902;50.420;18.854;2022-08-18T01:56:51;26;26;18
55043;PMS5003;54902;50.420;18.854;2022-08-18T01:57:07;26;26;18
55043;PMS5003;54902;50.420;18.854;2022-08-18T01:57:28;26;26;18
55043;PMS5003;54902;50.420;18.854;2022-08-18T01:57:44;26;26;18
55043;PMS5003;54902;50.420;18.854;2022-08-18T01:58:00;30;30;21
55043;PMS5003;54902;50.420;18.854;2022-08-18T01:58:17;24;24;17
55043;PMS5003;54902;50.420;18.854;2022-08-18T01:58:38;24;24;17